Bernasconi, Argentina
Current Conditions -  °F | °C
As of 7:00 AM on Friday 24 Oct 2014 (Local Time) from SAZN Reporting Station
Few Clouds Few Clouds  
Wind Chill: 52°   Ceiling: Unl
Heat Index: 52°   Visibility: 6mi
Dew Point: 43°   Wind: 6mph
Humidity: 71%   Direction: 110°ESE
Pressure: 30.15"   Gusts: NA
Location:  37.9°S, 63.72°W
Report Text: SAZN 241000Z 11005KT 9999 FEW045 FEW05011/06 Q1021
Loading
Personal Weather Stations






























Interactive Weather Map
Tropical Storm Tracking
New forecast layout! Learn more

10-Day Weather Forecast

Advertisements
Track Severe Weather on mobile